sensor_id;sensor_type;location;lat;lon;timestamp;temperature;humidity
9219;DHT22;4644;48.858;9.184;2023-11-19T00:00:52;7.60;99.90
9219;DHT22;4644;48.858;9.184;2023-11-19T00:03:19;7.60;99.90
9219;DHT22;4644;48.858;9.184;2023-11-19T00:05:47;7.60;99.90
9219;DHT22;4644;48.858;9.184;2023-11-19T00:08:16;7.60;99.90
9219;DHT22;4644;48.858;9.184;2023-11-19T00:10:43;7.60;99.90
9219;DHT22;4644;48.858;9.184;2023-11-19T00:13:11;7.60;99.90
9219;DHT22;4644;48.858;9.184;2023-11-19T00:15:38;7.70;99.90
9219;DHT22;4644;48.858;9.184;2023-11-19T00:18:07;7.70;99.90
9219;DHT22;4644;48.858;9.184;2023-11-19T00:20:34;7.80;99.90
9219;DHT22;4644;48.858;9.184;2023-11-19T00:23:03;7.80;99.90
9219;DHT22;4644;48.858;9.184;2023-11-19T00:25:30;7.70;99.90
9219;DHT22;4644;48.858;9.184;2023-11-19T00:27:57;7.80;99.90
9219;DHT22;4644;48.858;9.184;2023-11-19T00:30:25;7.90;99.90
9219;DHT22;4644;48.858;9.184;2023-11-19T00:32:52;7.80;99.90
9219;DHT22;4644;48.858;9.184;2023-11-19T00:35:19;7.80;99.90
9219;DHT22;4644;48.858;9.184;2023-11-19T00:37:46;7.80;99.90
9219;DHT22;4644;48.858;9.184;2023-11-19T00:40:15;7.90;99.90
9219;DHT22;4644;48.858;9.184;2023-11-19T00:42:44;7.80;99.90
9219;DHT22;4644;48.858;9.184;2023-11-19T00:45:11;7.90;99.90
9219;DHT22;4644;48.858;9.184;2023-11-19T00:47:38;8.00;99.90
9219;DHT22;4644;48.858;9.184;2023-11-19T00:50:06;8.00;99.90
9219;DHT22;4644;48.858;9.184;2023-11-19T00:52:35;8.10;99.90
9219;DHT22;4644;48.858;9.184;2023-11-19T00:55:03;8.10;99.90
9219;DHT22;4644;48.858;9.184;2023-11-19T00:57:31;8.10;99.90
9219;DHT22;4644;48.858;9.184;2023-11-19T00:59:58;8.20;99.90
9219;DHT22;4644;48.858;9.184;2023-11-19T01:02:25;8.10;99.90
9219;DHT22;4644;48.858;9.184;2023-11-19T01:04:52;8.20;99.90
9219;DHT22;4644;48.858;9.184;2023-11-19T01:07:21;8.20;99.90
9219;DHT22;4644;48.858;9.184;2023-11-19T01:09:49;8.20;99.90
9219;DHT22;4644;48.858;9.184;2023-11-19T01:12:17;8.20;99.90
9219;DHT22;4644;48.858;9.184;2023-11-19T01:14:45;8.20;99.90
9219;DHT22;4644;48.858;9.184;2023-11-19T01:17:12;8.20;99.90
9219;DHT22;4644;48.858;9.184;2023-11-19T01:19:40;8.30;99.90
9219;DHT22;4644;48.858;9.184;2023-11-19T01:22:07;8.30;99.90
9219;DHT22;4644;48.858;9.184;2023-11-19T01:24:34;8.40;99.90
9219;DHT22;4644;48.858;9.184;2023-11-19T01:27:01;8.40;99.90
9219;DHT22;4644;48.858;9.184;2023-11-19T01:29:27;8.50;99.90
9219;DHT22;4644;48.858;9.184;2023-11-19T01:31:56;8.60;99.90
9219;DHT22;4644;48.858;9.184;2023-11-19T01:34:23;8.60;99.90
9219;DHT22;4644;48.858;9.184;2023-11-19T01:36:50;8.70;99.90
9219;DHT22;4644;48.858;9.184;2023-11-19T01:39:17;8.80;99.90
9219;DHT22;4644;48.858;9.184;2023-11-19T01:41:45;8.90;99.90
9219;DHT22;4644;48.858;9.184;2023-11-19T01:44:12;8.80;99.90
9219;DHT22;4644;48.858;9.184;2023-11-19T01:46:42;8.90;99.90
9219;DHT22;4644;48.858;9.184;2023-11-19T01:49:14;8.90;99.90
9219;DHT22;4644;48.858;9.184;2023-11-19T01:51:42;8.90;99.90
9219;DHT22;4644;48.858;9.184;2023-11-19T01:54:09;8.90;99.90
9219;DHT22;4644;48.858;9.184;2023-11-19T01:56:37;9.00;99.90
9219;DHT22;4644;48.858;9.184;2023-11-19T01:59:06;9.00;99.90
9219;DHT22;4644;48.858;9.184;2023-11-19T02:01:35;9.00;99.90
9219;DHT22;4644;48.858;9.184;2023-11-19T02:04:05;9.00;99.90
9219;DHT22;4644;48.858;9.184;2023-11-19T02:06:34;9.00;99.90
9219;DHT22;4644;48.858;9.184;2023-11-19T02:09:05;9.00;99.90
9219;DHT22;4644;48.858;9.184;2023-11-19T02:11:33;9.10;99.90
9219;DHT22;4644;48.858;9.184;2023-11-19T02:14:00;9.10;99.90
9219;DHT22;4644;48.858;9.184;2023-11-19T02:16:29;9.10;99.90
9219;DHT22;4644;48.858;9.184;2023-11-19T02:18:56;9.10;99.90
9219;DHT22;4644;48.858;9.184;2023-11-19T02:21:23;9.10;99.90
9219;DHT22;4644;48.858;9.184;2023-11-19T02:23:51;9.20;99.90
9219;DHT22;4644;48.858;9.184;2023-11-19T02:26:25;9.20;99.90
9219;DHT22;4644;48.858;9.184;2023-11-19T02:28:55;9.10;99.90
9219;DHT22;4644;48.858;9.184;2023-11-19T02:31:22;9.10;99.90
9219;DHT22;4644;48.858;9.184;2023-11-19T02:33:49;9.20;99.90
9219;DHT22;4644;48.858;9.184;2023-11-19T02:36:17;9.10;99.90
9219;DHT22;4644;48.858;9.184;2023-11-19T02:38:44;9.20;99.90
9219;DHT22;4644;48.858;9.184;2023-11-19T02:41:11;9.10;99.90
9219;DHT22;4644;48.858;9.184;2023-11-19T02:43:38;9.10;99.90
9219;DHT22;4644;48.858;9.184;2023-11-19T02:46:07;9.10;99.90
9219;DHT22;4644;48.858;9.184;2023-11-19T02:48:34;9.10;99.90
9219;DHT22;4644;48.858;9.184;2023-11-19T02:51:02;9.10;99.90
9219;DHT22;4644;48.858;9.184;2023-11-19T02:53:30;9.10;99.90
9219;DHT22;4644;48.858;9.184;2023-11-19T02:55:57;9.10;99.90
9219;DHT22;4644;48.858;9.184;2023-11-19T02:58:31;9.10;99.90
9219;DHT22;4644;48.858;9.184;2023-11-19T03:01:00;9.10;99.90
9219;DHT22;4644;48.858;9.184;2023-11-19T03:03:37;9.10;99.90
9219;DHT22;4644;48.858;9.184;2023-11-19T03:06:06;9.00;99.90
9219;DHT22;4644;48.858;9.184;2023-11-19T03:08:36;9.10;99.90
9219;DHT22;4644;48.858;9.184;2023-11-19T03:11:03;9.00;99.90
9219;DHT22;4644;48.858;9.184;2023-11-19T03:13:31;9.10;99.90
9219;DHT22;4644;48.858;9.184;2023-11-19T03:15:58;9.00;99.90
9219;DHT22;4644;48.858;9.184;2023-11-19T03:18:25;9.00;99.90
9219;DHT22;4644;48.858;9.184;2023-11-19T03:20:54;9.10;99.90
9219;DHT22;4644;48.858;9.184;2023-11-19T03:23:21;9.10;99.90
9219;DHT22;4644;48.858;9.184;2023-11-19T03:25:48;9.10;99.90
9219;DHT22;4644;48.858;9.184;2023-11-19T03:28:15;9.10;99.90
9219;DHT22;4644;48.858;9.184;2023-11-19T03:30:42;9.10;99.90
9219;DHT22;4644;48.858;9.184;2023-11-19T03:33:09;9.10;99.90
9219;DHT22;4644;48.858;9.184;2023-11-19T03:35:37;9.10;99.90
9219;DHT22;4644;48.858;9.184;2023-11-19T03:38:05;9.10;99.90
9219;DHT22;4644;48.858;9.184;2023-11-19T03:40:32;9.10;99.90
9219;DHT22;4644;48.858;9.184;2023-11-19T03:42:59;9.10;99.90
9219;DHT22;4644;48.858;9.184;2023-11-19T03:45:26;9.10;99.90
9219;DHT22;4644;48.858;9.184;2023-11-19T03:47:53;9.20;99.90
9219;DHT22;4644;48.858;9.184;2023-11-19T03:50:20;9.20;99.90
9219;DHT22;4644;48.858;9.184;2023-11-19T03:52:47;9.10;99.90
9219;DHT22;4644;48.858;9.184;2023-11-19T03:55:16;9.10;99.90
9219;DHT22;4644;48.858;9.184;2023-11-19T03:57:43;9.10;99.90
9219;DHT22;4644;48.858;9.184;2023-11-19T04:00:11;9.10;99.90
9219;DHT22;4644;48.858;9.184;2023-11-19T04:02:39;9.10;99.90
9219;DHT22;4644;48.858;9.184;2023-11-19T04:05:07;9.10;99.90
9219;DHT22;4644;48.858;9.184;2023-11-19T04:07:35;9.10;99.90
9219;DHT22;4644;48.858;9.184;2023-11-19T04:10:03;9.20;99.90
9219;DHT22;4644;48.858;9.184;2023-11-19T04:12:31;9.20;99.90
9219;DHT22;4644;48.858;9.184;2023-11-19T04:14:58;9.20;99.90
9219;DHT22;4644;48.858;9.184;2023-11-19T04:17:25;9.20;99.90
9219;DHT22;4644;48.858;9.184;2023-11-19T04:19:52;9.10;99.90
9219;DHT22;4644;48.858;9.184;2023-11-19T04:22:19;9.10;99.90
9219;DHT22;4644;48.858;9.184;2023-11-19T04:24:46;9.10;99.90
9219;DHT22;4644;48.858;9.184;2023-11-19T04:27:14;9.20;99.90
9219;DHT22;4644;48.858;9.184;2023-11-19T04:29:42;9.20;99.90
9219;DHT22;4644;48.858;9.184;2023-11-19T04:32:11;9.20;99.90
9219;DHT22;4644;48.858;9.184;2023-11-19T04:34:38;9.20;99.90
9219;DHT22;4644;48.858;9.184;2023-11-19T04:37:05;9.10;99.90
9219;DHT22;4644;48.858;9.184;2023-11-19T04:39:32;9.20;99.90
9219;DHT22;4644;48.858;9.184;2023-11-19T04:41:59;9.20;99.90
9219;DHT22;4644;48.858;9.184;2023-11-19T04:44:26;9.20;99.90
9219;DHT22;4644;48.858;9.184;2023-11-19T04:46:54;9.20;99.90
9219;DHT22;4644;48.858;9.184;2023-11-19T04:49:21;9.20;99.90
9219;DHT22;4644;48.858;9.184;2023-11-19T04:51:48;9.20;99.90
9219;DHT22;4644;48.858;9.184;2023-11-19T04:54:16;9.30;99.90
9219;DHT22;4644;48.858;9.184;2023-11-19T04:56:45;9.20;99.90
9219;DHT22;4644;48.858;9.184;2023-11-19T04:59:12;9.30;99.90
9219;DHT22;4644;48.858;9.184;2023-11-19T05:01:40;9.30;99.90
9219;DHT22;4644;48.858;9.184;2023-11-19T05:04:08;9.40;99.90
9219;DHT22;4644;48.858;9.184;2023-11-19T05:06:36;9.50;99.90
9219;DHT22;4644;48.858;9.184;2023-11-19T05:09:03;9.60;99.90
9219;DHT22;4644;48.858;9.184;2023-11-19T05:11:33;9.70;99.90
9219;DHT22;4644;48.858;9.184;2023-11-19T05:14:02;9.70;99.90
9219;DHT22;4644;48.858;9.184;2023-11-19T05:16:30;9.80;99.90
9219;DHT22;4644;48.858;9.184;2023-11-19T05:18:58;9.80;99.90
9219;DHT22;4644;48.858;9.184;2023-11-19T05:21:26;9.90;99.90
9219;DHT22;4644;48.858;9.184;2023-11-19T05:23:53;9.90;99.90
9219;DHT22;4644;48.858;9.184;2023-11-19T05:26:21;10.00;99.90
9219;DHT22;4644;48.858;9.184;2023-11-19T05:28:48;10.00;99.90
9219;DHT22;4644;48.858;9.184;2023-11-19T05:31:16;10.00;99.90
9219;DHT22;4644;48.858;9.184;2023-11-19T05:33:44;10.10;99.90
9219;DHT22;4644;48.858;9.184;2023-11-19T05:36:11;10.10;99.90
9219;DHT22;4644;48.858;9.184;2023-11-19T05:38:40;10.20;99.90
9219;DHT22;4644;48.858;9.184;2023-11-19T05:41:07;10.20;99.90
9219;DHT22;4644;48.858;9.184;2023-11-19T05:43:34;10.20;99.90
9219;DHT22;4644;48.858;9.184;2023-11-19T05:46:01;10.30;99.90
9219;DHT22;4644;48.858;9.184;2023-11-19T05:48:28;10.30;99.90
9219;DHT22;4644;48.858;9.184;2023-11-19T05:50:55;10.30;99.90
9219;DHT22;4644;48.858;9.184;2023-11-19T05:53:22;10.20;99.90
9219;DHT22;4644;48.858;9.184;2023-11-19T05:55:51;10.30;99.90
9219;DHT22;4644;48.858;9.184;2023-11-19T05:58:23;10.20;99.90
9219;DHT22;4644;48.858;9.184;2023-11-19T06:00:54;10.30;99.90
9219;DHT22;4644;48.858;9.184;2023-11-19T06:03:21;10.30;99.90
9219;DHT22;4644;48.858;9.184;2023-11-19T06:05:48;10.20;99.90
9219;DHT22;4644;48.858;9.184;2023-11-19T06:08:15;10.30;99.90
9219;DHT22;4644;48.858;9.184;2023-11-19T06:10:42;10.30;99.90
9219;DHT22;4644;48.858;9.184;2023-11-19T06:13:13;10.30;99.90
9219;DHT22;4644;48.858;9.184;2023-11-19T06:15:41;10.30;99.90
9219;DHT22;4644;48.858;9.184;2023-11-19T06:18:08;10.20;99.90
9219;DHT22;4644;48.858;9.184;2023-11-19T06:20:37;10.20;99.90
9219;DHT22;4644;48.858;9.184;2023-11-19T06:23:04;10.20;99.90
9219;DHT22;4644;48.858;9.184;2023-11-19T06:25:32;10.20;99.90
9219;DHT22;4644;48.858;9.184;2023-11-19T06:28:01;10.20;99.90
9219;DHT22;4644;48.858;9.184;2023-11-19T06:30:29;10.30;99.90
9219;DHT22;4644;48.858;9.184;2023-11-19T06:32:58;10.40;99.90
9219;DHT22;4644;48.858;9.184;2023-11-19T06:35:25;10.40;99.90
9219;DHT22;4644;48.858;9.184;2023-11-19T06:37:52;10.40;99.90
9219;DHT22;4644;48.858;9.184;2023-11-19T06:40:19;10.30;99.90
9219;DHT22;4644;48.858;9.184;2023-11-19T06:42:46;10.40;99.90
9219;DHT22;4644;48.858;9.184;2023-11-19T06:45:13;10.40;99.90
9219;DHT22;4644;48.858;9.184;2023-11-19T06:47:41;10.40;99.90
9219;DHT22;4644;48.858;9.184;2023-11-19T06:50:08;10.40;99.90
9219;DHT22;4644;48.858;9.184;2023-11-19T06:52:37;10.40;99.90
9219;DHT22;4644;48.858;9.184;2023-11-19T06:55:06;10.40;99.90
9219;DHT22;4644;48.858;9.184;2023-11-19T06:57:33;10.40;99.90
9219;DHT22;4644;48.858;9.184;2023-11-19T07:00:00;10.50;99.90
9219;DHT22;4644;48.858;9.184;2023-11-19T07:02:28;10.50;99.90
9219;DHT22;4644;48.858;9.184;2023-11-19T07:04:58;10.50;99.90
9219;DHT22;4644;48.858;9.184;2023-11-19T07:07:28;10.50;99.90
9219;DHT22;4644;48.858;9.184;2023-11-19T07:09:56;10.50;99.90
9219;DHT22;4644;48.858;9.184;2023-11-19T07:12:23;10.60;99.90
9219;DHT22;4644;48.858;9.184;2023-11-19T07:14:52;10.50;99.90
9219;DHT22;4644;48.858;9.184;2023-11-19T07:17:20;10.50;99.90
9219;DHT22;4644;48.858;9.184;2023-11-19T07:19:50;10.50;99.90
9219;DHT22;4644;48.858;9.184;2023-11-19T07:22:19;10.60;99.90
9219;DHT22;4644;48.858;9.184;2023-11-19T07:24:45;10.60;99.90
9219;DHT22;4644;48.858;9.184;2023-11-19T07:27:13;10.60;99.90
9219;DHT22;4644;48.858;9.184;2023-11-19T07:29:43;10.50;99.90
9219;DHT22;4644;48.858;9.184;2023-11-19T07:32:10;10.50;99.90
9219;DHT22;4644;48.858;9.184;2023-11-19T07:34:39;10.50;99.90
9219;DHT22;4644;48.858;9.184;2023-11-19T07:37:06;10.50;99.90
9219;DHT22;4644;48.858;9.184;2023-11-19T07:39:35;10.50;99.90
9219;DHT22;4644;48.858;9.184;2023-11-19T07:42:04;10.50;99.90
9219;DHT22;4644;48.858;9.184;2023-11-19T07:44:30;10.50;99.90
9219;DHT22;4644;48.858;9.184;2023-11-19T07:46:57;10.50;99.90
9219;DHT22;4644;48.858;9.184;2023-11-19T07:49:25;10.50;99.90
9219;DHT22;4644;48.858;9.184;2023-11-19T07:51:52;10.50;99.90
9219;DHT22;4644;48.858;9.184;2023-11-19T07:54:19;10.50;99.90
9219;DHT22;4644;48.858;9.184;2023-11-19T07:56:49;10.60;99.90
9219;DHT22;4644;48.858;9.184;2023-11-19T07:59:16;10.60;99.90
9219;DHT22;4644;48.858;9.184;2023-11-19T08:01:43;10.60;99.90
9219;DHT22;4644;48.858;9.184;2023-11-19T08:04:10;10.60;99.90
9219;DHT22;4644;48.858;9.184;2023-11-19T08:06:37;10.70;99.90
9219;DHT22;4644;48.858;9.184;2023-11-19T08:09:04;10.70;99.90
9219;DHT22;4644;48.858;9.184;2023-11-19T08:11:32;10.70;99.90
9219;DHT22;4644;48.858;9.184;2023-11-19T08:14:01;10.70;99.90
9219;DHT22;4644;48.858;9.184;2023-11-19T08:16:28;10.80;99.90
9219;DHT22;4644;48.858;9.184;2023-11-19T08:18:55;10.80;99.90
9219;DHT22;4644;48.858;9.184;2023-11-19T08:21:24;10.80;99.90
9219;DHT22;4644;48.858;9.184;2023-11-19T08:23:52;10.80;99.90
9219;DHT22;4644;48.858;9.184;2023-11-19T08:26:19;10.90;99.90
9219;DHT22;4644;48.858;9.184;2023-11-19T08:28:46;11.00;99.90
9219;DHT22;4644;48.858;9.184;2023-11-19T08:31:15;11.10;99.90
9219;DHT22;4644;48.858;9.184;2023-11-19T08:33:42;11.10;99.90
9219;DHT22;4644;48.858;9.184;2023-11-19T08:36:09;11.10;99.90
9219;DHT22;4644;48.858;9.184;2023-11-19T08:38:41;11.20;99.90
9219;DHT22;4644;48.858;9.184;2023-11-19T08:41:08;11.30;99.90
9219;DHT22;4644;48.858;9.184;2023-11-19T08:43:35;11.20;99.90
9219;DHT22;4644;48.858;9.184;2023-11-19T08:46:04;11.30;99.90
9219;DHT22;4644;48.858;9.184;2023-11-19T08:48:32;11.30;99.90
9219;DHT22;4644;48.858;9.184;2023-11-19T08:50:59;11.30;99.90
9219;DHT22;4644;48.858;9.184;2023-11-19T08:53:26;11.30;99.90
9219;DHT22;4644;48.858;9.184;2023-11-19T08:55:53;11.30;99.90
9219;DHT22;4644;48.858;9.184;2023-11-19T08:58:20;11.40;99.90
9219;DHT22;4644;48.858;9.184;2023-11-19T09:00:47;11.50;99.90
9219;DHT22;4644;48.858;9.184;2023-11-19T09:03:14;11.60;99.90
9219;DHT22;4644;48.858;9.184;2023-11-19T09:05:43;11.60;99.90
9219;DHT22;4644;48.858;9.184;2023-11-19T09:08:10;11.70;99.90
9219;DHT22;4644;48.858;9.184;2023-11-19T09:10:41;11.90;99.90
9219;DHT22;4644;48.858;9.184;2023-11-19T09:13:08;12.00;99.90
9219;DHT22;4644;48.858;9.184;2023-11-19T09:15:35;12.00;99.90
9219;DHT22;4644;48.858;9.184;2023-11-19T09:18:02;12.10;99.90
9219;DHT22;4644;48.858;9.184;2023-11-19T09:20:30;12.20;99.90
9219;DHT22;4644;48.858;9.184;2023-11-19T09:23:04;12.20;99.90
9219;DHT22;4644;48.858;9.184;2023-11-19T09:25:32;12.10;99.90
9219;DHT22;4644;48.858;9.184;2023-11-19T09:27:59;12.10;99.90
9219;DHT22;4644;48.858;9.184;2023-11-19T09:30:25;12.10;99.90
9219;DHT22;4644;48.858;9.184;2023-11-19T09:32:53;12.10;99.90
9219;DHT22;4644;48.858;9.184;2023-11-19T09:35:20;12.10;99.90
9219;DHT22;4644;48.858;9.184;2023-11-19T09:37:47;12.00;99.90
9219;DHT22;4644;48.858;9.184;2023-11-19T09:40:15;12.00;99.90
9219;DHT22;4644;48.858;9.184;2023-11-19T09:42:44;12.00;99.90
9219;DHT22;4644;48.858;9.184;2023-11-19T09:45:14;12.00;99.90
9219;DHT22;4644;48.858;9.184;2023-11-19T09:47:44;12.00;99.90
9219;DHT22;4644;48.858;9.184;2023-11-19T09:50:16;12.10;99.90
9219;DHT22;4644;48.858;9.184;2023-11-19T09:52:44;12.10;99.90
9219;DHT22;4644;48.858;9.184;2023-11-19T09:55:11;12.20;99.90
9219;DHT22;4644;48.858;9.184;2023-11-19T09:57:40;12.20;99.90
9219;DHT22;4644;48.858;9.184;2023-11-19T10:00:10;12.30;99.90
9219;DHT22;4644;48.858;9.184;2023-11-19T10:02:39;12.20;99.90
9219;DHT22;4644;48.858;9.184;2023-11-19T10:05:07;12.30;99.90
9219;DHT22;4644;48.858;9.184;2023-11-19T10:07:35;12.30;99.90
9219;DHT22;4644;48.858;9.184;2023-11-19T10:10:04;12.40;99.90
9219;DHT22;4644;48.858;9.184;2023-11-19T10:12:31;12.50;99.90
9219;DHT22;4644;48.858;9.184;2023-11-19T10:14:59;12.50;99.90
9219;DHT22;4644;48.858;9.184;2023-11-19T10:17:33;12.50;99.90
9219;DHT22;4644;48.858;9.184;2023-11-19T10:20:00;12.40;99.90
9219;DHT22;4644;48.858;9.184;2023-11-19T10:22:28;12.40;99.90
9219;DHT22;4644;48.858;9.184;2023-11-19T10:24:55;12.50;99.90
9219;DHT22;4644;48.858;9.184;2023-11-19T10:27:24;12.50;99.90
9219;DHT22;4644;48.858;9.184;2023-11-19T10:29:51;12.60;99.90
9219;DHT22;4644;48.858;9.184;2023-11-19T10:32:20;12.70;99.90
9219;DHT22;4644;48.858;9.184;2023-11-19T10:34:47;12.80;99.90
9219;DHT22;4644;48.858;9.184;2023-11-19T10:37:27;12.80;99.90
9219;DHT22;4644;48.858;9.184;2023-11-19T10:39:55;12.90;99.90
9219;DHT22;4644;48.858;9.184;2023-11-19T10:42:22;12.90;99.90
9219;DHT22;4644;48.858;9.184;2023-11-19T10:44:52;12.80;99.90
9219;DHT22;4644;48.858;9.184;2023-11-19T10:47:23;12.90;99.90
9219;DHT22;4644;48.858;9.184;2023-11-19T10:49:50;12.80;99.90
9219;DHT22;4644;48.858;9.184;2023-11-19T10:52:18;12.90;99.90
9219;DHT22;4644;48.858;9.184;2023-11-19T10:54:49;12.90;99.90
9219;DHT22;4644;48.858;9.184;2023-11-19T10:57:20;13.00;99.90
9219;DHT22;4644;48.858;9.184;2023-11-19T10:59:50;13.10;99.90
9219;DHT22;4644;48.858;9.184;2023-11-19T11:02:21;13.10;99.90
9219;DHT22;4644;48.858;9.184;2023-11-19T11:04:51;13.30;99.90
9219;DHT22;4644;48.858;9.184;2023-11-19T11:07:21;13.40;99.90
9219;DHT22;4644;48.858;9.184;2023-11-19T11:09:51;13.50;99.90
9219;DHT22;4644;48.858;9.184;2023-11-19T11:12:22;13.60;99.90
9219;DHT22;4644;48.858;9.184;2023-11-19T11:14:51;13.70;99.90
9219;DHT22;4644;48.858;9.184;2023-11-19T11:17:24;13.80;99.90
9219;DHT22;4644;48.858;9.184;2023-11-19T11:19:53;13.80;99.90
9219;DHT22;4644;48.858;9.184;2023-11-19T11:22:21;13.90;99.90
9219;DHT22;4644;48.858;9.184;2023-11-19T11:25:19;13.90;99.90
9219;DHT22;4644;48.858;9.184;2023-11-19T11:28:01;14.00;99.90
9219;DHT22;4644;48.858;9.184;2023-11-19T11:30:39;13.90;99.90
9219;DHT22;4644;48.858;9.184;2023-11-19T11:33:26;13.90;99.90
9219;DHT22;4644;48.858;9.184;2023-11-19T11:36:07;14.00;99.90
9219;DHT22;4644;48.858;9.184;2023-11-19T11:38:38;14.10;99.90
9219;DHT22;4644;48.858;9.184;2023-11-19T11:41:18;14.20;99.90
9219;DHT22;4644;48.858;9.184;2023-11-19T11:43:49;14.30;99.90
9219;DHT22;4644;48.858;9.184;2023-11-19T11:49:28;14.60;99.90
9219;DHT22;4644;48.858;9.184;2023-11-19T11:52:03;14.80;99.90
9219;DHT22;4644;48.858;9.184;2023-11-19T11:54:31;15.00;99.90
9219;DHT22;4644;48.858;9.184;2023-11-19T11:57:03;15.00;99.90
9219;DHT22;4644;48.858;9.184;2023-11-19T11:59:46;15.10;99.90
9219;DHT22;4644;48.858;9.184;2023-11-19T12:02:15;15.20;99.90
9219;DHT22;4644;48.858;9.184;2023-11-19T12:04:47;15.30;99.90
9219;DHT22;4644;48.858;9.184;2023-11-19T12:07:17;15.50;99.90
9219;DHT22;4644;48.858;9.184;2023-11-19T12:09:47;15.40;99.90
9219;DHT22;4644;48.858;9.184;2023-11-19T12:12:19;15.30;99.90
9219;DHT22;4644;48.858;9.184;2023-11-19T12:15:06;15.10;99.90
9219;DHT22;4644;48.858;9.184;2023-11-19T12:17:42;15.00;99.90
9219;DHT22;4644;48.858;9.184;2023-11-19T12:20:12;14.90;99.90
9219;DHT22;4644;48.858;9.184;2023-11-19T12:22:41;14.80;99.90
9219;DHT22;4644;48.858;9.184;2023-11-19T12:25:09;14.70;99.90
9219;DHT22;4644;48.858;9.184;2023-11-19T12:27:36;14.60;99.90
9219;DHT22;4644;48.858;9.184;2023-11-19T12:30:04;14.60;99.90
9219;DHT22;4644;48.858;9.184;2023-11-19T12:32:41;14.50;99.90
9219;DHT22;4644;48.858;9.184;2023-11-19T12:35:13;14.50;99.90
9219;DHT22;4644;48.858;9.184;2023-11-19T12:37:41;14.60;99.90
9219;DHT22;4644;48.858;9.184;2023-11-19T12:40:15;14.60;99.90
9219;DHT22;4644;48.858;9.184;2023-11-19T12:42:43;14.50;99.90
9219;DHT22;4644;48.858;9.184;2023-11-19T12:45:10;14.50;99.90
9219;DHT22;4644;48.858;9.184;2023-11-19T12:47:38;14.60;99.90
9219;DHT22;4644;48.858;9.184;2023-11-19T12:50:06;14.60;99.90
9219;DHT22;4644;48.858;9.184;2023-11-19T12:52:35;14.50;99.90
9219;DHT22;4644;48.858;9.184;2023-11-19T12:55:03;14.50;99.90
9219;DHT22;4644;48.858;9.184;2023-11-19T12:57:37;14.60;99.90
9219;DHT22;4644;48.858;9.184;2023-11-19T13:00:17;14.60;99.90
9219;DHT22;4644;48.858;9.184;2023-11-19T13:02:47;14.70;99.90
9219;DHT22;4644;48.858;9.184;2023-11-19T13:05:28;14.80;99.90
9219;DHT22;4644;48.858;9.184;2023-11-19T13:08:01;15.00;99.90
9219;DHT22;4644;48.858;9.184;2023-11-19T13:10:30;15.10;99.90
9219;DHT22;4644;48.858;9.184;2023-11-19T13:13:02;15.10;99.90
9219;DHT22;4644;48.858;9.184;2023-11-19T13:15:30;15.10;99.90
9219;DHT22;4644;48.858;9.184;2023-11-19T13:17:57;15.10;99.90
9219;DHT22;4644;48.858;9.184;2023-11-19T13:20:24;15.10;99.90
9219;DHT22;4644;48.858;9.184;2023-11-19T13:22:58;15.00;99.90
9219;DHT22;4644;48.858;9.184;2023-11-19T13:25:26;14.90;99.90
9219;DHT22;4644;48.858;9.184;2023-11-19T13:27:54;14.80;99.90
9219;DHT22;4644;48.858;9.184;2023-11-19T13:30:22;14.70;99.90
9219;DHT22;4644;48.858;9.184;2023-11-19T13:32:50;14.70;99.90
9219;DHT22;4644;48.858;9.184;2023-11-19T13:35:17;14.60;99.90
9219;DHT22;4644;48.858;9.184;2023-11-19T13:37:45;14.50;99.90
9219;DHT22;4644;48.858;9.184;2023-11-19T13:40:13;14.50;99.90
9219;DHT22;4644;48.858;9.184;2023-11-19T13:42:42;14.50;99.90
9219;DHT22;4644;48.858;9.184;2023-11-19T13:45:10;14.40;99.90
9219;DHT22;4644;48.858;9.184;2023-11-19T13:47:39;14.50;99.90
9219;DHT22;4644;48.858;9.184;2023-11-19T13:50:08;14.40;99.90
9219;DHT22;4644;48.858;9.184;2023-11-19T13:52:36;14.40;99.90
9219;DHT22;4644;48.858;9.184;2023-11-19T13:55:07;14.50;99.90
9219;DHT22;4644;48.858;9.184;2023-11-19T13:57:35;14.50;99.90
9219;DHT22;4644;48.858;9.184;2023-11-19T14:00:05;14.50;99.90
9219;DHT22;4644;48.858;9.184;2023-11-19T14:02:32;14.40;99.90
9219;DHT22;4644;48.858;9.184;2023-11-19T14:04:58;14.40;99.90
9219;DHT22;4644;48.858;9.184;2023-11-19T14:07:25;14.40;99.90
9219;DHT22;4644;48.858;9.184;2023-11-19T14:09:53;14.50;99.90
9219;DHT22;4644;48.858;9.184;2023-11-19T14:12:20;14.50;99.90
9219;DHT22;4644;48.858;9.184;2023-11-19T14:14:47;14.50;99.90
9219;DHT22;4644;48.858;9.184;2023-11-19T14:17:16;14.50;99.90
9219;DHT22;4644;48.858;9.184;2023-11-19T14:19:44;14.50;99.90
9219;DHT22;4644;48.858;9.184;2023-11-19T14:22:11;14.50;99.90
9219;DHT22;4644;48.858;9.184;2023-11-19T14:24:38;14.40;99.90
9219;DHT22;4644;48.858;9.184;2023-11-19T14:27:06;14.40;99.90
9219;DHT22;4644;48.858;9.184;2023-11-19T14:29:33;14.30;99.90
9219;DHT22;4644;48.858;9.184;2023-11-19T14:32:01;14.30;99.90
9219;DHT22;4644;48.858;9.184;2023-11-19T14:34:29;14.20;99.90
9219;DHT22;4644;48.858;9.184;2023-11-19T14:36:58;14.10;99.90
9219;DHT22;4644;48.858;9.184;2023-11-19T14:39:28;14.20;99.90
9219;DHT22;4644;48.858;9.184;2023-11-19T14:41:56;14.10;99.90
9219;DHT22;4644;48.858;9.184;2023-11-19T14:44:26;14.00;99.90
9219;DHT22;4644;48.858;9.184;2023-11-19T14:46:55;14.00;99.90
9219;DHT22;4644;48.858;9.184;2023-11-19T14:49:22;14.00;99.90
9219;DHT22;4644;48.858;9.184;2023-11-19T14:51:51;13.90;99.90
9219;DHT22;4644;48.858;9.184;2023-11-19T14:54:18;13.90;99.90
9219;DHT22;4644;48.858;9.184;2023-11-19T14:56:45;13.90;99.90
9219;DHT22;4644;48.858;9.184;2023-11-19T14:59:13;13.80;99.90
9219;DHT22;4644;48.858;9.184;2023-11-19T15:01:39;13.80;99.90
9219;DHT22;4644;48.858;9.184;2023-11-19T15:04:07;13.70;99.90
9219;DHT22;4644;48.858;9.184;2023-11-19T15:06:34;13.60;99.90
9219;DHT22;4644;48.858;9.184;2023-11-19T15:09:03;13.60;99.90
9219;DHT22;4644;48.858;9.184;2023-11-19T15:11:30;13.60;99.90
9219;DHT22;4644;48.858;9.184;2023-11-19T15:13:57;13.60;99.90
9219;DHT22;4644;48.858;9.184;2023-11-19T15:16:25;13.60;99.90
9219;DHT22;4644;48.858;9.184;2023-11-19T15:18:57;13.50;99.90
9219;DHT22;4644;48.858;9.184;2023-11-19T15:21:25;13.50;99.90
9219;DHT22;4644;48.858;9.184;2023-11-19T15:23:53;13.50;99.90
9219;DHT22;4644;48.858;9.184;2023-11-19T15:26:21;13.50;99.90
9219;DHT22;4644;48.858;9.184;2023-11-19T15:28:48;13.40;99.90
9219;DHT22;4644;48.858;9.184;2023-11-19T15:31:15;13.40;99.90
9219;DHT22;4644;48.858;9.184;2023-11-19T15:33:42;13.40;99.90
9219;DHT22;4644;48.858;9.184;2023-11-19T15:36:09;13.40;99.90
9219;DHT22;4644;48.858;9.184;2023-11-19T15:38:37;13.40;99.90
9219;DHT22;4644;48.858;9.184;2023-11-19T15:41:04;13.40;99.90
9219;DHT22;4644;48.858;9.184;2023-11-19T15:43:34;13.30;99.90
9219;DHT22;4644;48.858;9.184;2023-11-19T15:46:05;13.30;99.90
9219;DHT22;4644;48.858;9.184;2023-11-19T15:48:33;13.20;99.90
9219;DHT22;4644;48.858;9.184;2023-11-19T15:51:00;13.20;99.90
9219;DHT22;4644;48.858;9.184;2023-11-19T15:53:28;13.10;99.90
9219;DHT22;4644;48.858;9.184;2023-11-19T15:55:55;13.00;99.90
9219;DHT22;4644;48.858;9.184;2023-11-19T15:58:22;13.00;99.90
9219;DHT22;4644;48.858;9.184;2023-11-19T16:00:50;13.00;99.90
9219;DHT22;4644;48.858;9.184;2023-11-19T16:03:17;12.90;99.90
9219;DHT22;4644;48.858;9.184;2023-11-19T16:05:44;12.80;99.90
9219;DHT22;4644;48.858;9.184;2023-11-19T16:08:11;12.80;99.90
9219;DHT22;4644;48.858;9.184;2023-11-19T16:10:38;12.70;99.90
9219;DHT22;4644;48.858;9.184;2023-11-19T16:13:08;12.70;99.90
9219;DHT22;4644;48.858;9.184;2023-11-19T16:15:35;12.60;99.90
9219;DHT22;4644;48.858;9.184;2023-11-19T16:18:04;12.60;99.90